Time;durP1;ratioP1;P1;durP2;ratioP2;P2;SDS_P1;SDS_P2;PMS_P1;PMS_P2;Temp;Humidity;BMP_temperature;BMP_pressure;BME280_temperature;BME280_humidity;BME280_pressure;Samples;Min_cycle;Max_cycle;Signal;HPM_P1;HPM_P2
2023/01/16 00:00:19;;;;;;;4.07;2.10;;;6.50;99.90;;;;;;5017372;28;95429;-74
2023/01/16 00:02:46;;;;;;;3.00;1.90;;;6.50;99.90;;;;;;5034297;28;92385;-75
2023/01/16 00:05:13;;;;;;;4.63;2.33;;;6.50;99.90;;;;;;5035520;28;92391;-75
2023/01/16 00:07:40;;;;;;;7.35;2.58;;;6.40;99.90;;;;;;5034287;28;93161;-75
2023/01/16 00:10:07;;;;;;;3.50;2.22;;;6.40;99.90;;;;;;5033876;28;96206;-75
2023/01/16 00:12:34;;;;;;;6.68;2.28;;;6.40;99.90;;;;;;5033966;28;92392;-75
2023/01/16 00:15:02;;;;;;;4.05;2.40;;;6.40;99.90;;;;;;5037920;28;91705;-74
2023/01/16 00:17:29;;;;;;;3.35;2.17;;;6.30;99.90;;;;;;5020487;28;95225;-74
2023/01/16 00:19:56;;;;;;;4.82;2.35;;;6.30;99.90;;;;;;5037489;28;95533;-74
2023/01/16 00:22:23;;;;;;;5.82;2.40;;;6.20;99.90;;;;;;5036296;28;94911;-74
2023/01/16 00:24:50;;;;;;;4.60;2.33;;;6.10;99.90;;;;;;5037914;28;92916;-75
2023/01/16 00:27:17;;;;;;;6.10;2.55;;;6.00;99.90;;;;;;5037363;28;93232;-73
2023/01/16 00:29:45;;;;;;;5.85;2.40;;;6.00;99.90;;;;;;5020532;28;95736;-74
2023/01/16 00:32:13;;;;;;;2.85;2.25;;;5.90;99.90;;;;;;5037551;28;92518;-74
2023/01/16 00:34:40;;;;;;;5.28;3.08;;;5.80;99.90;;;;;;5037450;28;92473;-74
2023/01/16 00:37:07;;;;;;;5.47;2.33;;;5.70;99.90;;;;;;5037051;28;96052;-74
2023/01/16 00:39:34;;;;;;;3.97;2.03;;;5.70;99.90;;;;;;5038883;28;92737;-74
2023/01/16 00:42:01;;;;;;;5.85;2.50;;;5.60;99.90;;;;;;5037360;28;93031;-74
2023/01/16 00:44:28;;;;;;;7.15;2.47;;;5.50;99.90;;;;;;5020216;28;92458;-74
2023/01/16 00:46:55;;;;;;;5.63;2.53;;;5.50;99.90;;;;;;5037294;28;95401;-74
2023/01/16 00:49:22;;;;;;;5.13;2.53;;;5.40;99.90;;;;;;5036933;28;95720;-74
2023/01/16 00:51:49;;;;;;;5.45;2.10;;;5.40;99.90;;;;;;5020715;28;92490;-74
2023/01/16 00:54:16;;;;;;;9.02;2.53;;;5.30;99.90;;;;;;5037343;28;92497;-74
2023/01/16 00:56:44;;;;;;;4.80;2.20;;;5.30;99.90;;;;;;5038330;28;93277;-74
2023/01/16 00:59:11;;;;;;;6.90;2.40;;;5.30;99.90;;;;;;5036778;28;95607;-74
2023/01/16 01:01:38;;;;;;;6.05;2.28;;;5.20;99.90;;;;;;5037153;28;92550;-74
2023/01/16 01:04:05;;;;;;;4.38;2.33;;;5.30;99.90;;;;;;5038722;28;91718;-74
2023/01/16 01:06:32;;;;;;;8.95;2.65;;;5.30;99.90;;;;;;5037974;28;93279;-74
2023/01/16 01:08:59;;;;;;;4.60;2.15;;;5.30;99.90;;;;;;5038177;28;93080;-74
2023/01/16 01:11:26;;;;;;;4.57;2.10;;;5.30;99.90;;;;;;5035274;28;94818;-74
2023/01/16 01:13:53;;;;;;;4.55;2.45;;;5.30;99.90;;;;;;5019942;28;92402;-74
2023/01/16 01:16:20;;;;;;;8.50;2.28;;;5.30;99.90;;;;;;5037899;28;93339;-74
2023/01/16 01:18:48;;;;;;;4.60;2.33;;;5.30;99.90;;;;;;5036984;28;93010;-75
2023/01/16 01:21:20;;;;;;;2.78;2.05;;;5.20;99.90;;;;;;5020813;28;92453;-73
2023/01/16 01:23:47;;;;;;;7.40;2.72;;;5.20;99.90;;;;;;5036849;28;92475;-74
2023/01/16 01:26:17;;;;;;;5.35;2.10;;;5.20;99.90;;;;;;5002236;28;96109;-75
2023/01/16 01:28:44;;;;;;;6.22;2.10;;;5.10;99.90;;;;;;5036892;28;93560;-75
2023/01/16 01:31:12;;;;;;;4.25;1.80;;;5.10;99.90;;;;;;5036365;28;93211;-75
2023/01/16 01:33:40;;;;;;;4.90;1.95;;;5.10;99.90;;;;;;5019801;28;92501;-75
2023/01/16 01:36:08;;;;;;;6.38;2.13;;;5.10;99.90;;;;;;5035280;28;95689;-75
2023/01/16 01:38:35;;;;;;;6.03;2.00;;;5.10;99.90;;;;;;5036105;28;94369;-75
2023/01/16 01:41:02;;;;;;;5.70;1.67;;;5.10;99.90;;;;;;5037840;28;92505;-75
2023/01/16 01:43:42;;;;;;;3.30;2.00;;;5.10;99.90;;;;;;5037715;28;92520;-75
2023/01/16 01:46:26;;;;;;;7.72;2.28;;;5.20;99.90;;;;;;5036104;28;95460;-75
2023/01/16 01:49:07;;;;;;;5.72;2.10;;;5.20;99.90;;;;;;5037907;28;92954;-75
2023/01/16 01:51:41;;;;;;;8.40;2.00;;;5.10;99.90;;;;;;5019329;28;92443;-75
2023/01/16 01:54:12;;;;;;;4.18;1.77;;;5.10;99.90;;;;;;5036696;28;92359;-75
2023/01/16 01:56:46;;;;;;;3.95;1.77;;;5.10;99.90;;;;;;5035555;28;96172;-75
2023/01/16 01:59:31;;;;;;;5.88;2.50;;;5.10;99.90;;;;;;5037625;28;93283;-73
2023/01/16 02:02:00;;;;;;;5.53;1.88;;;5.20;99.90;;;;;;5035086;28;94837;-73
2023/01/16 02:04:32;;;;;;;5.30;1.90;;;5.10;99.90;;;;;;5037160;28;92452;-74
2023/01/16 02:07:06;;;;;;;2.47;1.77;;;5.20;99.90;;;;;;5035608;28;94545;-74
2023/01/16 02:09:34;;;;;;;6.72;1.80;;;5.30;99.90;;;;;;5035677;28;95837;-74
2023/01/16 02:12:07;;;;;;;8.90;2.95;;;5.40;99.90;;;;;;5019263;28;92522;-74
2023/01/16 02:14:40;;;;;;;6.67;2.17;;;5.40;99.90;;;;;;5037265;28;92818;-74
2023/01/16 02:20:10;;;;;;;5.07;1.58;;;5.70;99.90;;;;;;5037247;28;91901;-74
2023/01/16 02:23:14;;;;;;;6.07;1.60;;;5.80;99.90;;;;;;5037094;28;92792;-74
2023/01/16 02:25:47;;;;;;;1.45;1.35;;;5.90;99.90;;;;;;5036938;28;92315;-74
2023/01/16 02:29:01;;;;;;;5.13;1.90;;;5.90;99.90;;;;;;5035345;28;95586;-74
2023/01/16 02:31:40;;;;;;;4.22;1.85;;;6.10;99.90;;;;;;5014812;28;96558;-74
2023/01/16 02:34:38;;;;;;;2.70;1.80;;;6.10;99.90;;;;;;5018782;28;92426;-74
2023/01/16 02:37:38;;;;;;;5.20;1.95;;;6.10;99.90;;;;;;5036562;27;92316;-74
2023/01/16 02:40:05;;;;;;;3.78;1.63;;;6.20;99.90;;;;;;5036901;28;93284;-74
2023/01/16 02:42:58;;;;;;;4.25;1.42;;;6.10;99.90;;;;;;5036493;28;93043;-74
2023/01/16 02:45:43;;;;;;;6.72;1.88;;;6.20;99.90;;;;;;5028514;28;92446;-74
2023/01/16 02:48:21;;;;;;;5.43;1.60;;;6.10;99.90;;;;;;5035930;28;92081;-74
2023/01/16 02:50:54;;;;;;;6.00;1.70;;;6.10;99.90;;;;;;5036389;28;93587;-74
2023/01/16 02:54:11;;;;;;;5.20;1.77;;;6.00;99.90;;;;;;5018610;28;94299;-74
2023/01/16 02:56:45;;;;;;;5.00;1.98;;;6.00;99.90;;;;;;5021701;28;95327;-74
2023/01/16 02:59:15;;;;;;;3.90;1.80;;;5.90;99.90;;;;;;5036764;28;92354;-74
2023/01/16 03:01:46;;;;;;;6.53;2.08;;;5.90;99.90;;;;;;5036041;28;93613;-74
2023/01/16 03:04:38;;;;;;;6.32;2.17;;;5.90;99.90;;;;;;5035075;28;95434;-74
2023/01/16 03:07:38;;;;;;;4.40;2.05;;;6.00;99.90;;;;;;5035344;28;92517;-74
2023/01/16 03:10:30;;;;;;;4.85;2.03;;;6.10;99.90;;;;;;5035140;28;92467;-74
2023/01/16 03:13:25;;;;;;;4.40;2.08;;;6.10;99.90;;;;;;5034485;28;95889;-74
2023/01/16 03:16:18;;;;;;;2.72;1.73;;;6.10;99.90;;;;;;5035597;28;92947;-74
2023/01/16 03:18:48;;;;;;;6.30;1.83;;;6.10;99.90;;;;;;5026721;28;92516;-74
2023/01/16 03:21:37;;;;;;;7.28;2.50;;;6.10;99.90;;;;;;5035948;28;92544;-74
2023/01/16 03:24:08;;;;;;;6.78;1.80;;;6.20;99.90;;;;;;5033615;28;95789;-74
2023/01/16 03:26:52;;;;;;;5.63;1.42;;;6.20;99.90;;;;;;5034975;28;95625;-74
2023/01/16 03:29:27;;;;;;;3.35;2.13;;;6.20;99.90;;;;;;5036212;27;92401;-74
2023/01/16 03:32:21;;;;;;;4.30;2.28;;;6.10;99.90;;;;;;5035746;28;92453;-74
2023/01/16 03:34:55;;;;;;;9.25;2.33;;;6.10;99.90;;;;;;5035738;28;93212;-74
2023/01/16 03:37:26;;;;;;;2.95;2.00;;;6.00;99.90;;;;;;5017812;28;95493;-74
2023/01/16 03:40:01;;;;;;;4.97;2.20;;;6.00;99.90;;;;;;5035644;28;92422;-74
2023/01/16 03:42:31;;;;;;;4.72;2.30;;;5.90;99.90;;;;;;5036408;28;91663;-74
2023/01/16 03:45:04;;;;;;;5.35;2.20;;;5.80;99.90;;;;;;5034431;28;93509;-74
2023/01/16 03:47:38;;;;;;;6.70;2.60;;;5.70;99.90;;;;;;5034770;28;93155;-74
2023/01/16 03:50:10;;;;;;;8.60;2.57;;;5.70;99.90;;;;;;5032288;27;95249;-74
2023/01/16 03:52:44;;;;;;;3.92;2.05;;;5.70;99.90;;;;;;5017849;28;93081;-74
2023/01/16 03:55:14;;;;;;;5.47;3.13;;;5.80;99.90;;;;;;5034610;28;93331;-74
2023/01/16 03:58:04;;;;;;;6.13;2.47;;;5.80;99.90;;;;;;5017374;28;94301;-74
2023/01/16 04:00:44;;;;;;;6.80;3.10;;;5.90;99.90;;;;;;5034281;28;92496;-74
2023/01/16 04:03:19;;;;;;;4.63;3.13;;;5.90;99.90;;;;;;5017247;28;92638;-74
2023/01/16 04:06:02;;;;;;;5.18;3.22;;;6.00;99.90;;;;;;5034169;28;93208;-74
2023/01/16 04:08:34;;;;;;;6.25;3.45;;;6.10;99.90;;;;;;5034440;28;91839;-75
2023/01/16 04:11:03;;;;;;;4.10;2.97;;;6.10;99.90;;;;;;5033773;28;92548;-74
2023/01/16 04:13:35;;;;;;;5.07;3.05;;;6.20;99.90;;;;;;5034269;28;92542;-74
2023/01/16 04:16:06;;;;;;;5.38;3.40;;;6.30;99.90;;;;;;5015759;28;98141;-74
2023/01/16 04:18:35;;;;;;;6.63;3.10;;;6.30;99.90;;;;;;5035623;28;94010;-74
2023/01/16 04:21:06;;;;;;;4.82;3.40;;;6.30;99.90;;;;;;5033736;28;92700;-74
2023/01/16 04:23:35;;;;;;;8.32;3.65;;;6.40;99.90;;;;;;5017280;28;92517;-74
2023/01/16 04:26:02;;;;;;;4.53;2.92;;;6.40;99.90;;;;;;5033447;28;96326;-74
2023/01/16 04:28:29;;;;;;;4.68;3.42;;;6.40;99.90;;;;;;5017211;28;92977;-75
2023/01/16 04:30:56;;;;;;;5.72;3.30;;;6.40;99.90;;;;;;5033235;28;92505;-75
2023/01/16 04:33:23;;;;;;;3.97;3.17;;;6.40;99.90;;;;;;5035820;28;91817;-74
2023/01/16 04:35:50;;;;;;;6.53;3.53;;;6.50;99.90;;;;;;5016856;28;96144;-74
2023/01/16 04:38:17;;;;;;;4.65;3.55;;;6.50;99.90;;;;;;5032979;28;95513;-74
2023/01/16 04:40:44;;;;;;;4.22;3.55;;;6.50;99.90;;;;;;5032727;28;95317;-74
2023/01/16 04:43:11;;;;;;;7.05;4.10;;;6.50;99.90;;;;;;5033288;28;92911;-74
2023/01/16 04:45:40;;;;;;;5.57;4.13;;;6.50;99.90;;;;;;5035016;28;93633;-74
2023/01/16 04:48:07;;;;;;;6.45;5.07;;;6.50;99.90;;;;;;5017066;28;95575;-74
2023/01/16 04:50:34;;;;;;;6.72;4.68;;;6.50;99.90;;;;;;5035128;28;92408;-74
2023/01/16 04:53:01;;;;;;;8.45;5.53;;;6.50;99.90;;;;;;5034593;28;92525;-74
2023/01/16 04:55:28;;;;;;;6.03;4.93;;;6.50;99.90;;;;;;5033370;28;93641;-74
2023/01/16 04:57:55;;;;;;;11.15;6.35;;;6.60;99.90;;;;;;5016907;28;95294;-74
2023/01/16 05:00:22;;;;;;;7.68;5.70;;;6.60;99.90;;;;;;5034707;28;92465;-74
2023/01/16 05:02:49;;;;;;;8.25;6.20;;;6.60;99.90;;;;;;5036809;28;92465;-74
2023/01/16 05:05:16;;;;;;;7.50;6.70;;;6.60;99.90;;;;;;5018745;28;95653;-74
2023/01/16 05:07:43;;;;;;;10.63;7.03;;;6.60;99.90;;;;;;5019603;28;102939;-74
2023/01/16 05:10:10;;;;;;;12.52;6.93;;;6.60;99.90;;;;;;5036900;28;92398;-74
2023/01/16 05:12:37;;;;;;;10.27;7.75;;;6.50;99.90;;;;;;5036704;28;92584;-74
2023/01/16 05:15:06;;;;;;;13.63;8.75;;;6.50;99.90;;;;;;5037939;28;93282;-74
2023/01/16 05:17:33;;;;;;;13.40;8.43;;;6.50;99.90;;;;;;5036654;28;92946;-74
2023/01/16 05:20:00;;;;;;;11.40;8.45;;;6.50;99.90;;;;;;5036690;28;92381;-74
2023/01/16 05:22:27;;;;;;;14.73;8.88;;;6.50;99.90;;;;;;5038303;28;91689;-74
2023/01/16 05:24:54;;;;;;;15.02;9.93;;;6.50;99.90;;;;;;5020328;28;93243;-73
2023/01/16 05:27:21;;;;;;;12.35;9.23;;;6.50;99.90;;;;;;5036643;28;93066;-74
2023/01/16 05:29:48;;;;;;;11.30;8.40;;;6.50;99.90;;;;;;5036735;28;94750;-74
2023/01/16 05:32:15;;;;;;;12.85;8.68;;;6.40;99.90;;;;;;5036181;28;92481;-74
2023/01/16 05:34:42;;;;;;;13.80;9.48;;;6.40;99.90;;;;;;5036315;28;96170;-74
2023/01/16 05:37:09;;;;;;;12.85;9.82;;;6.30;99.90;;;;;;5036209;28;95278;-74
2023/01/16 05:39:36;;;;;;;16.30;9.15;;;6.20;99.90;;;;;;5019369;28;94218;-75
2023/01/16 05:42:03;;;;;;;15.10;10.00;;;6.10;99.90;;;;;;5036251;28;92454;-74
2023/01/16 05:44:30;;;;;;;11.93;8.60;;;6.00;99.90;;;;;;5035694;28;95764;-75
2023/01/16 05:46:57;;;;;;;13.25;9.52;;;6.00;99.90;;;;;;5036402;28;92951;-74
2023/01/16 05:49:24;;;;;;;14.98;9.32;;;5.90;99.90;;;;;;5037850;28;92434;-75
2023/01/16 05:51:51;;;;;;;13.10;9.23;;;5.90;99.90;;;;;;5019567;28;92475;-74
2023/01/16 05:54:18;;;;;;;15.15;8.68;;;5.90;99.90;;;;;;5034767;28;96633;-75
2023/01/16 05:56:45;;;;;;;13.45;9.32;;;5.90;99.90;;;;;;5019067;28;98028;-74
2023/01/16 05:59:12;;;;;;;13.02;8.93;;;5.80;99.90;;;;;;5037445;28;92471;-75
2023/01/16 06:01:39;;;;;;;14.52;8.15;;;5.90;99.90;;;;;;5019242;28;92618;-74
2023/01/16 06:04:06;;;;;;;11.32;7.97;;;5.80;99.90;;;;;;5019041;28;93430;-75
2023/01/16 06:06:33;;;;;;;8.93;7.15;;;5.80;99.90;;;;;;5037169;28;100810;-75
2023/01/16 06:09:00;;;;;;;12.88;8.40;;;5.80;99.90;;;;;;5035957;28;92438;-74
2023/01/16 06:11:27;;;;;;;14.00;8.13;;;5.90;99.90;;;;;;5035868;27;91842;-74
2023/01/16 06:13:54;;;;;;;11.73;7.82;;;5.90;99.90;;;;;;5035260;28;96032;-74
2023/01/16 06:16:22;;;;;;;7.72;6.50;;;5.90;99.90;;;;;;5035437;28;95664;-75
2023/01/16 06:18:49;;;;;;;8.02;6.05;;;6.00;99.90;;;;;;5018028;28;94949;-75
2023/01/16 06:21:16;;;;;;;8.88;5.97;;;6.00;99.90;;;;;;5036830;28;92837;-75
2023/01/16 06:23:43;;;;;;;10.38;6.50;;;6.00;99.90;;;;;;5037022;28;93250;-74
2023/01/16 06:26:10;;;;;;;8.65;6.43;;;6.00;99.90;;;;;;5036418;28;92830;-75
2023/01/16 06:28:38;;;;;;;8.65;6.00;;;6.00;99.90;;;;;;5036822;27;92399;-75
2023/01/16 06:31:06;;;;;;;7.25;5.22;;;6.00;99.90;;;;;;5034819;28;95183;-74
2023/01/16 06:33:34;;;;;;;11.15;5.70;;;5.90;99.90;;;;;;5036791;28;93201;-75
2023/01/16 06:36:01;;;;;;;8.10;5.65;;;5.80;99.90;;;;;;5036960;28;93277;-75
2023/01/16 06:38:28;;;;;;;12.07;5.35;;;5.80;99.90;;;;;;5018391;28;93009;-75
2023/01/16 06:40:56;;;;;;;8.25;6.10;;;5.70;99.90;;;;;;5035370;28;92432;-75
2023/01/16 06:43:24;;;;;;;8.07;5.18;;;5.70;99.90;;;;;;5016616;28;97375;-75
2023/01/16 06:45:51;;;;;;;9.38;5.97;;;5.60;99.90;;;;;;5018797;28;95189;-75
2023/01/16 06:48:18;;;;;;;8.38;5.88;;;5.60;99.90;;;;;;5036604;28;92312;-75
2023/01/16 06:50:46;;;;;;;9.30;5.35;;;5.40;99.90;;;;;;5035611;28;93018;-75
2023/01/16 06:53:13;;;;;;;6.53;5.65;;;5.30;99.90;;;;;;5034778;28;95877;-75
2023/01/16 06:55:41;;;;;;;11.52;5.60;;;5.30;99.90;;;;;;5035284;28;92498;-75
2023/01/16 06:58:09;;;;;;;12.00;6.57;;;5.30;99.90;;;;;;5036423;28;92534;-76
2023/01/16 07:00:36;;;;;;;9.32;6.00;;;5.20;99.90;;;;;;5036916;28;91662;-74
2023/01/16 07:03:04;;;;;;;9.38;5.45;;;5.20;99.90;;;;;;5035389;28;93273;-75
2023/01/16 07:05:31;;;;;;;7.47;5.32;;;5.20;99.90;;;;;;5034683;28;93035;-75
2023/01/16 07:07:58;;;;;;;7.68;4.70;;;5.20;99.90;;;;;;5034015;28;94826;-74
2023/01/16 07:10:25;;;;;;;11.68;6.53;;;5.20;99.90;;;;;;5017659;28;92517;-74
2023/01/16 07:12:52;;;;;;;10.80;5.75;;;5.10;99.90;;;;;;5018121;28;95704;-75
2023/01/16 07:23:53;;;;;;;12.77;6.18;;;5.10;99.90;;;;;;5035040;27;93219;-74
2023/01/16 07:26:21;;;;;;;11.85;6.38;;;5.00;99.90;;;;;;5018027;28;95532;-74
2023/01/16 07:28:50;;;;;;;11.60;6.80;;;5.00;99.90;;;;;;5034923;28;92402;-74
2023/01/16 07:31:17;;;;;;;11.52;7.10;;;5.00;99.90;;;;;;5033710;28;92623;-74
2023/01/16 07:33:44;;;;;;;15.52;7.40;;;5.10;99.90;;;;;;5034552;28;96289;-74
2023/01/16 07:36:11;;;;;;;11.35;6.55;;;5.10;99.90;;;;;;5035756;28;95247;-74
2023/01/16 07:38:38;;;;;;;11.55;7.15;;;5.00;99.90;;;;;;4984741;28;92492;-74
2023/01/16 07:41:05;;;;;;;10.52;6.65;;;5.00;99.90;;;;;;5034120;28;92485;-75
2023/01/16 07:43:32;;;;;;;10.55;6.90;;;5.00;99.90;;;;;;5034038;28;95869;-74
2023/01/16 07:45:59;;;;;;;10.52;6.30;;;5.00;99.90;;;;;;5035688;28;92446;-74
2023/01/16 07:48:26;;;;;;;11.45;6.78;;;5.00;99.90;;;;;;5035411;28;92452;-74
2023/01/16 07:50:55;;;;;;;12.85;5.68;;;5.00;99.90;;;;;;5036311;28;91685;-75
2023/01/16 07:53:24;;;;;;;11.90;6.20;;;5.00;99.90;;;;;;5034998;28;93148;-75
2023/01/16 07:55:55;;;;;;;8.15;5.13;;;5.00;99.90;;;;;;5034422;28;93037;-75
2023/01/16 07:58:22;;;;;;;12.32;6.28;;;5.00;99.90;;;;;;5015965;28;95570;-74
2023/01/16 08:00:52;;;;;;;10.35;5.03;;;5.00;99.90;;;;;;5034593;28;92502;-75
2023/01/16 08:03:19;;;;;;;8.13;5.18;;;5.00;99.90;;;;;;5035096;27;93160;-75
2023/01/16 08:05:47;;;;;;;7.68;4.90;;;5.00;99.90;;;;;;5033833;28;94701;-75
2023/01/16 08:08:14;;;;;;;9.80;6.45;;;5.00;99.90;;;;;;5034402;28;92553;-75
2023/01/16 08:10:41;;;;;;;9.98;6.03;;;5.00;99.90;;;;;;5000660;28;92599;-75
2023/01/16 08:13:08;;;;;;;7.10;4.95;;;5.10;99.90;;;;;;5033977;28;93378;-74
2023/01/16 08:15:35;;;;;;;9.70;5.13;;;5.10;99.90;;;;;;5035535;28;93119;-74
2023/01/16 08:18:02;;;;;;;11.90;6.68;;;5.10;99.90;;;;;;5034209;28;92535;-74
2023/01/16 08:20:29;;;;;;;13.38;6.18;;;5.10;99.90;;;;;;5033730;28;92669;-75
2023/01/16 08:22:57;;;;;;;11.30;5.70;;;5.20;99.90;;;;;;5032420;28;95644;-75
2023/01/16 08:25:25;;;;;;;7.10;5.05;;;5.30;99.90;;;;;;5034754;28;95760;-75
2023/01/16 08:27:51;;;;;;;10.73;6.00;;;5.30;99.90;;;;;;5035282;28;93000;-75
2023/01/16 08:30:19;;;;;;;9.25;5.82;;;5.30;99.90;;;;;;5035421;27;92493;-75
2023/01/16 08:32:46;;;;;;;11.02;5.57;;;5.40;99.90;;;;;;5034307;28;99440;-74
2023/01/16 08:35:13;;;;;;;6.93;5.60;;;5.40;99.90;;;;;;5036115;27;92931;-74
2023/01/16 08:37:48;;;;;;;8.52;4.32;;;5.40;99.90;;;;;;5037368;28;92374;-74
2023/01/16 08:40:16;;;;;;;7.50;3.80;;;5.40;99.90;;;;;;5038773;28;92219;-74
2023/01/16 08:51:23;;;;;;;7.88;4.00;;;5.60;99.90;;;;;;5037101;28;92435;-75
2023/01/16 08:53:52;;;;;;;4.93;3.45;;;5.60;99.90;;;;;;5038323;28;93521;-75
2023/01/16 08:56:20;;;;;;;5.32;3.13;;;5.70;99.90;;;;;;5038400;27;92344;-75
2023/01/16 08:58:55;;;;;;;8.00;3.95;;;5.70;99.90;;;;;;5021179;28;92936;-75
2023/01/16 09:01:23;;;;;;;5.18;3.95;;;5.70;99.90;;;;;;5038588;28;93002;-75
2023/01/16 09:03:50;;;;;;;5.85;3.47;;;5.80;99.90;;;;;;5036466;28;93316;-75
2023/01/16 09:06:17;;;;;;;5.18;3.78;;;5.90;99.90;;;;;;5037128;28;93311;-75
2023/01/16 09:08:44;;;;;;;5.10;3.30;;;5.90;99.90;;;;;;5038376;28;92893;-75
2023/01/16 09:14:00;;;;;;;7.20;3.40;;;6.00;99.90;;;;;;5037076;28;95844;-75
2023/01/16 09:16:27;;;;;;;6.72;3.33;;;6.00;99.90;;;;;;5020850;28;95276;-75
2023/01/16 09:18:54;;;;;;;4.65;3.00;;;6.10;99.90;;;;;;5038312;28;92542;-75
2023/01/16 09:21:24;;;;;;;7.05;3.47;;;6.10;99.90;;;;;;5020049;28;92571;-75
2023/01/16 09:23:52;;;;;;;5.45;2.95;;;6.10;99.90;;;;;;5037545;28;93382;-75
2023/01/16 09:26:19;;;;;;;3.50;3.15;;;6.10;99.90;;;;;;5037890;28;92949;-75
2023/01/16 09:28:46;;;;;;;6.18;3.35;;;6.10;99.90;;;;;;5037722;28;92456;-75
2023/01/16 09:31:13;;;;;;;4.38;3.22;;;6.20;99.90;;;;;;5036228;28;91739;-75
2023/01/16 09:33:41;;;;;;;5.25;2.70;;;6.20;99.90;;;;;;5035948;28;93375;-75
2023/01/16 09:36:08;;;;;;;4.22;2.92;;;6.10;99.90;;;;;;5020160;28;92950;-75
2023/01/16 09:38:35;;;;;;;7.00;3.10;;;6.10;99.90;;;;;;5034732;28;94949;-75
2023/01/16 09:41:02;;;;;;;3.97;3.20;;;6.20;99.90;;;;;;5037823;28;92434;-75
2023/01/16 09:43:39;;;;;;;7.63;3.08;;;6.20;99.90;;;;;;5036401;28;92976;-75
2023/01/16 09:46:27;;;;;;;2.50;2.30;;;6.10;99.90;;;;;;5035958;27;92946;-74
2023/01/16 09:49:00;;;;;;;6.72;2.78;;;6.10;99.90;;;;;;5036257;28;92351;-74
2023/01/16 09:51:33;;;;;;;4.13;2.58;;;6.10;99.90;;;;;;5037959;27;92483;-74
2023/01/16 09:59:48;;;;;;;3.20;2.58;;;6.10;99.90;;;;;;5037517;27;92960;-74
2023/01/16 10:02:27;;;;;;;4.07;2.13;;;6.10;99.90;;;;;;5037527;28;92415;-74
2023/01/16 10:04:55;;;;;;;3.20;1.95;;;6.20;99.90;;;;;;5035945;28;95771;-74
2023/01/16 10:07:31;;;;;;;3.13;2.33;;;6.10;99.90;;;;;;5037180;28;95324;-74
2023/01/16 10:10:22;;;;;;;3.08;2.00;;;6.10;99.90;;;;;;5037417;28;93005;-74
2023/01/16 10:13:11;;;;;;;3.97;2.10;;;6.10;99.90;;;;;;5035863;28;93430;-74
2023/01/16 10:15:57;;;;;;;2.35;2.15;;;6.10;99.90;;;;;;5037218;28;92446;-75
2023/01/16 10:18:55;;;;;;;6.07;2.47;;;6.10;99.90;;;;;;5037169;28;93062;-75
2023/01/16 10:21:31;;;;;;;2.95;2.53;;;6.10;99.90;;;;;;5037488;28;92909;-75
2023/01/16 10:24:17;;;;;;;3.53;1.60;;;6.10;99.90;;;;;;5037651;28;92109;-75
2023/01/16 10:27:05;;;;;;;3.20;1.90;;;6.10;99.90;;;;;;5036914;27;93238;-75
2023/01/16 10:29:47;;;;;;;2.55;2.35;;;6.10;99.90;;;;;;5036976;28;93287;-75
2023/01/16 10:32:40;;;;;;;3.47;2.08;;;6.10;99.90;;;;;;5035314;27;94950;-75
2023/01/16 10:35:17;;;;;;;5.07;1.98;;;6.10;99.90;;;;;;5035164;28;92481;-75
2023/01/16 10:37:45;;;;;;;3.83;1.50;;;6.10;99.90;;;;;;5036439;28;93296;-75
2023/01/16 10:40:15;;;;;;;2.35;1.70;;;6.00;99.90;;;;;;5036579;28;92912;-74
2023/01/16 10:51:12;;;;;;;4.28;2.10;;;5.80;99.90;;;;;;5036940;28;93203;-74
2023/01/16 10:53:39;;;;;;;3.60;2.42;;;5.70;99.90;;;;;;5036616;27;92430;-74
2023/01/16 10:56:06;;;;;;;4.38;2.28;;;5.70;99.90;;;;;;5035192;28;92454;-74
2023/01/16 10:58:36;;;;;;;2.25;1.90;;;5.70;99.90;;;;;;5017002;28;95730;-74
2023/01/16 11:01:03;;;;;;;4.28;3.13;;;5.60;99.90;;;;;;5034392;28;98149;-74
2023/01/16 11:03:39;;;;;;;3.70;2.10;;;5.60;99.90;;;;;;5036674;28;92890;-74
2023/01/16 11:06:21;;;;;;;2.15;1.92;;;5.60;99.90;;;;;;5034708;28;92880;-74
2023/01/16 11:08:54;;;;;;;4.60;2.05;;;5.60;99.90;;;;;;5036184;28;93245;-74
2023/01/16 11:20:28;;;;;;;1.75;1.17;;;5.60;99.90;;;;;;5034564;28;95684;-73
2023/01/16 11:23:04;;;;;;;3.72;2.22;;;5.50;99.90;;;;;;5034407;28;93001;-75
2023/01/16 11:25:32;;;;;;;2.38;1.73;;;5.50;99.90;;;;;;5035176;28;95328;-74
2023/01/16 11:28:05;;;;;;;5.05;1.88;;;5.50;99.90;;;;;;5034489;28;92601;-74
2023/01/16 11:30:38;;;;;;;3.73;2.10;;;5.50;99.90;;;;;;5017791;28;95449;-74
2023/01/16 11:33:17;;;;;;;4.10;1.75;;;5.50;99.90;;;;;;5033848;28;96096;-74
2023/01/16 11:35:54;;;;;;;3.03;1.88;;;5.60;99.90;;;;;;5036149;28;92334;-74
2023/01/16 11:38:26;;;;;;;2.67;2.10;;;5.60;99.90;;;;;;5034557;28;92524;-74
2023/01/16 11:40:57;;;;;;;3.47;2.35;;;5.60;99.90;;;;;;5035834;28;93819;-74
2023/01/16 11:46:29;;;;;;;3.35;1.80;;;5.60;99.90;;;;;;5035773;28;92347;-74
2023/01/16 11:49:02;;;;;;;2.75;2.10;;;5.60;99.90;;;;;;5035586;28;92368;-74
2023/01/16 11:51:32;;;;;;;2.00;1.80;;;5.60;99.90;;;;;;5034421;28;95688;-74
2023/01/16 11:54:01;;;;;;;2.75;2.05;;;5.60;99.90;;;;;;5033926;28;95390;-74
2023/01/16 11:56:31;;;;;;;45.80;34.50;;;5.60;99.90;;;;;;5035543;27;92442;-74
2023/01/16 11:59:24;;;;;;;9.77;6.10;;;5.70;99.90;;;;;;5034018;28;92372;-74
2023/01/16 12:05:53;;;;;;;3.28;2.97;;;5.70;99.90;;;;;;5035385;28;92937;-74
2023/01/16 12:07:56;;;;;;;3.75;2.83;;;5.70;99.90;;;;;;5035647;28;92530;-74
2023/01/16 12:10:38;;;;;;;11.93;6.82;;;5.80;99.90;;;;;;4998037;28;91855;-74
2023/01/16 12:16:38;;;;;;;3.78;2.70;;;5.80;99.90;;;;;;5037393;28;94902;-75
2023/01/16 12:19:43;;;;;;;5.03;3.22;;;5.80;99.90;;;;;;5036609;28;94995;-74
2023/01/16 12:22:25;;;;;;;5.32;3.58;;;5.80;99.90;;;;;;5038821;28;93131;-74
2023/01/16 12:25:17;;;;;;;3.33;2.42;;;5.80;99.90;;;;;;5039127;28;93221;-74
2023/01/16 12:28:18;;;;;;;2.80;2.30;;;5.90;99.90;;;;;;5037179;28;94788;-74
2023/01/16 12:31:25;;;;;;;6.03;2.55;;;5.90;99.90;;;;;;5039037;28;92552;-75
2023/01/16 12:34:19;;;;;;;4.88;3.83;;;5.90;99.90;;;;;;5038219;28;92487;-75
2023/01/16 12:36:46;;;;;;;3.50;3.27;;;6.00;99.90;;;;;;5037394;28;92746;-74
2023/01/16 12:39:26;;;;;;;4.47;2.35;;;6.00;99.90;;;;;;5037693;28;93181;-75
2023/01/16 12:45:25;;;;;;;3.17;2.85;;;6.10;99.90;;;;;;5038459;27;92520;-74
2023/01/16 12:48:08;;;;;;;4.20;2.55;;;6.20;99.90;;;;;;5035580;28;98252;-75
2023/01/16 12:51:13;;;;;;;5.65;2.80;;;6.20;99.90;;;;;;5037387;28;95701;-74
2023/01/16 12:54:30;;;;;;;5.60;3.13;;;6.20;99.90;;;;;;5038146;28;93022;-73
2023/01/16 12:57:20;;;;;;;4.43;2.53;;;6.20;99.90;;;;;;5011515;28;93553;-73
2023/01/16 13:00:14;;;;;;;3.25;2.72;;;6.30;99.90;;;;;;5020388;28;95428;-73
2023/01/16 13:02:45;;;;;;;3.22;2.33;;;6.30;99.90;;;;;;5036766;28;95516;-73
2023/01/16 13:05:32;;;;;;;4.70;1.90;;;6.30;99.90;;;;;;5037043;28;92444;-73
2023/01/16 13:08:06;;;;;;;3.28;2.90;;;6.30;99.90;;;;;;5037807;28;92009;-73
2023/01/16 13:13:36;;;;;;;2.22;2.13;;;6.40;99.90;;;;;;5036562;28;95476;-72
2023/01/16 13:16:25;;;;;;;1.52;1.42;;;6.40;99.90;;;;;;5035430;28;94862;-72
2023/01/16 13:19:03;;;;;;;2.50;2.30;;;6.30;99.90;;;;;;5038173;28;92400;-73
2023/01/16 13:21:43;;;;;;;4.10;2.60;;;6.40;99.90;;;;;;5036891;28;93432;-73
2023/01/16 13:24:15;;;;;;;2.10;2.00;;;6.40;99.90;;;;;;5036590;28;92882;-73
2023/01/16 13:26:45;;;;;;;2.03;1.80;;;6.50;99.90;;;;;;5038214;28;92328;-73
2023/01/16 13:29:28;;;;;;;2.72;1.63;;;6.50;99.90;;;;;;5019880;28;92557;-73
2023/01/16 13:32:00;;;;;;;1.90;1.67;;;6.50;99.90;;;;;;5035962;28;94999;-73
2023/01/16 13:34:52;;;;;;;2.33;1.60;;;6.50;99.90;;;;;;5038256;28;91825;-73
2023/01/16 13:37:58;;;;;;;2.50;2.30;;;6.50;99.90;;;;;;5036437;28;92578;-74
2023/01/16 13:40:34;;;;;;;2.42;1.80;;;6.60;99.90;;;;;;4974900;28;92559;-72
2023/01/16 13:45:58;;;;;;;;;;;6.50;99.90;;;;;;5020811;28;95333;-72
2023/01/16 13:48:31;;;;;;;2.05;1.80;;;6.50;99.90;;;;;;5037406;28;92443;-72
2023/01/16 13:51:02;;;;;;;2.10;1.90;;;6.60;99.90;;;;;;5037791;28;92352;-72
2023/01/16 13:53:31;;;;;;;1.83;1.70;;;6.70;99.90;;;;;;5019242;28;95777;-73
2023/01/16 13:56:20;;;;;;;1.90;1.75;;;6.70;99.90;;;;;;5019303;28;95727;-73
2023/01/16 13:59:02;;;;;;;2.22;2.13;;;6.90;99.90;;;;;;5036601;28;92464;-73
2023/01/16 14:01:56;;;;;;;2.03;1.92;;;7.00;99.90;;;;;;5035877;28;97295;-74
2023/01/16 14:04:23;;;;;;;1.98;1.50;;;7.10;99.90;;;;;;5035732;28;95504;-74
2023/01/16 14:10:17;;;;;;;1.75;1.52;;;7.10;99.90;;;;;;5034791;28;94946;-73
2023/01/16 14:13:14;;;;;;;2.10;1.80;;;7.00;99.90;;;;;;5036346;28;92490;-73
2023/01/16 14:18:47;;;;;;;1.83;1.70;;;6.90;99.90;;;;;;4997843;28;95871;-73
2023/01/16 14:21:20;;;;;;;2.30;2.20;;;6.90;99.90;;;;;;5037063;28;92342;-73
2023/01/16 14:24:02;;;;;;;3.28;1.95;;;6.90;99.90;;;;;;5037135;28;92381;-73
2023/01/16 14:26:42;;;;;;;1.83;1.40;;;6.90;99.90;;;;;;5036955;27;93401;-73
2023/01/16 14:29:28;;;;;;;1.98;1.88;;;6.80;99.90;;;;;;5037258;27;92688;-73
2023/01/16 14:32:08;;;;;;;1.92;1.80;;;6.80;99.90;;;;;;5035727;28;93064;-73
2023/01/16 14:34:59;;;;;;;2.20;2.05;;;6.80;99.90;;;;;;5036029;27;92516;-73
2023/01/16 14:37:31;;;;;;;2.53;2.13;;;6.80;99.90;;;;;;5034079;28;95595;-73